createdAt,value
2022-10-07T00:01:12.742Z,3.17
2022-10-07T00:03:42.110Z,4.78
2022-10-07T00:06:20.429Z,3.25
2022-10-07T00:08:52.373Z,2.70
2022-10-07T00:11:45.069Z,7.63
2022-10-07T00:14:14.217Z,2.92
2022-10-07T00:16:43.213Z,6.65
2022-10-07T00:19:13.593Z,5.38
2022-10-07T00:21:42.239Z,3.40
2022-10-07T00:24:11.434Z,3.00
2022-10-07T00:26:40.388Z,4.80
2022-10-07T00:29:08.394Z,3.53
2022-10-07T00:31:38.435Z,4.43
2022-10-07T00:34:06.719Z,4.70
2022-10-07T00:36:37.377Z,3.83
2022-10-07T00:39:10.291Z,3.88
2022-10-07T00:41:42.142Z,6.68
2022-10-07T00:44:31.742Z,2.38
2022-10-07T00:47:17.365Z,2.92
2022-10-07T00:50:01.306Z,2.67
2022-10-07T00:52:33.696Z,3.13
2022-10-07T00:55:07.489Z,3.70
2022-10-07T00:57:37.923Z,4.57
2022-10-07T01:00:08.659Z,4.03
2022-10-07T01:02:38.953Z,5.07
2022-10-07T01:05:09.906Z,2.70
2022-10-07T01:07:39.180Z,4.80
2022-10-07T01:10:09.231Z,2.33
2022-10-07T01:12:51.564Z,3.38
2022-10-07T01:15:58.972Z,3.42
2022-10-07T01:19:00.343Z,2.67
2022-10-07T01:22:01.166Z,3.03
2022-10-07T01:24:46.419Z,3.38
2022-10-07T01:27:22.801Z,7.38
2022-10-07T01:30:08.536Z,4.28
2022-10-07T01:32:49.294Z,3.55
2022-10-07T01:35:25.443Z,3.65
2022-10-07T01:38:18.718Z,4.20
2022-10-07T01:41:11.164Z,6.20
2022-10-07T01:43:40.395Z,4.00
2022-10-07T01:46:16.020Z,6.47
2022-10-07T01:48:46.824Z,4.65
2022-10-07T01:51:17.698Z,3.42
2022-10-07T01:57:12.231Z,3.35
2022-10-07T01:59:53.411Z,4.20
2022-10-07T02:02:49.848Z,2.63
2022-10-07T02:05:47.073Z,4.40
2022-10-07T02:08:54.190Z,2.15
2022-10-07T02:11:38.466Z,3.42
2022-10-07T02:14:19.605Z,3.80
2022-10-07T02:17:03.156Z,3.03
2022-10-07T02:19:44.956Z,3.63
2022-10-07T02:22:15.336Z,1.90
2022-10-07T02:24:44.751Z,3.25
2022-10-07T02:27:18.299Z,2.80
2022-10-07T02:29:57.363Z,5.82
2022-10-07T02:32:30.048Z,2.92
2022-10-07T02:35:04.273Z,4.03
2022-10-07T02:37:38.183Z,2.83
2022-10-07T02:40:12.178Z,5.75
2022-10-07T02:43:01.703Z,6.57
2022-10-07T02:45:58.006Z,5.35
2022-10-07T02:48:37.793Z,3.95
2022-10-07T02:51:10.533Z,3.83
2022-10-07T02:53:40.065Z,3.33
2022-10-07T02:56:08.673Z,6.22
2022-10-07T02:58:37.787Z,3.63
2022-10-07T03:01:09.113Z,4.45
2022-10-07T03:03:38.477Z,7.45
2022-10-07T03:06:08.542Z,4.10
2022-10-07T03:08:37.878Z,5.18
2022-10-07T03:11:07.072Z,8.82
2022-10-07T03:13:35.233Z,4.70
2022-10-07T03:16:05.253Z,14.35
2022-10-07T03:18:34.734Z,8.30
2022-10-07T03:21:41.289Z,3.97
2022-10-07T03:24:12.616Z,13.82
2022-10-07T03:26:45.825Z,14.10
2022-10-07T03:29:15.446Z,74.15
2022-10-07T03:31:44.753Z,56.83
2022-10-07T03:34:13.140Z,326.02
2022-10-07T03:36:43.866Z,309.23
2022-10-07T03:39:12.749Z,128.23
2022-10-07T03:41:43.143Z,34.05
2022-10-07T03:44:14.911Z,11.90
2022-10-07T03:46:43.116Z,65.53
2022-10-07T03:49:11.948Z,91.72
2022-10-07T03:51:40.371Z,76.97
2022-10-07T03:54:10.279Z,48.78
2022-10-07T03:56:39.111Z,47.58
2022-10-07T03:59:07.302Z,26.25
2022-10-07T04:01:35.840Z,10.68
2022-10-07T04:04:04.432Z,20.60
2022-10-07T04:06:36.465Z,9.50
2022-10-07T04:09:13.472Z,10.40
2022-10-07T04:11:42.348Z,6.85
2022-10-07T04:14:11.568Z,3.75
2022-10-07T04:19:24.808Z,9.43
2022-10-07T04:21:56.205Z,7.40
2022-10-07T04:24:24.582Z,8.23
2022-10-07T04:26:53.801Z,6.00
2022-10-07T04:29:24.350Z,10.68
2022-10-07T04:31:54.037Z,11.95
2022-10-07T04:34:23.176Z,19.95
2022-10-07T04:36:55.625Z,22.27
2022-10-07T04:39:37.653Z,9.60
2022-10-07T04:42:34.721Z,6.40
2022-10-07T04:45:02.831Z,11.25
2022-10-07T04:47:37.026Z,8.07
2022-10-07T04:50:07.733Z,11.55
2022-10-07T04:52:39.871Z,25.55
2022-10-07T04:55:09.575Z,43.03
2022-10-07T04:57:37.505Z,35.40
2022-10-07T05:00:08.728Z,20.33
2022-10-07T05:02:37.846Z,10.48
2022-10-07T05:05:09.698Z,6.65
2022-10-07T05:07:38.550Z,10.05
2022-10-07T05:10:07.474Z,6.82
2022-10-07T05:12:35.174Z,8.43
2022-10-07T05:15:04.729Z,3.25
2022-10-07T05:17:34.641Z,5.43
2022-10-07T05:20:05.824Z,5.38
2022-10-07T05:22:36.700Z,10.75
2022-10-07T05:25:05.534Z,10.35
2022-10-07T05:27:34.177Z,15.27
2022-10-07T05:30:06.029Z,7.35
2022-10-07T05:32:35.549Z,10.77
2022-10-07T05:35:04.497Z,13.30
2022-10-07T05:37:34.650Z,8.02
2022-10-07T05:40:03.278Z,7.03
2022-10-07T05:42:31.074Z,18.85
2022-10-07T05:44:59.412Z,14.98
2022-10-07T05:47:27.499Z,18.20
2022-10-07T05:49:58.359Z,14.00
2022-10-07T05:52:28.089Z,12.97
2022-10-07T05:54:57.737Z,18.60
2022-10-07T05:57:25.535Z,11.93
2022-10-07T05:59:56.572Z,8.27
2022-10-07T06:02:25.697Z,9.10
2022-10-07T06:04:54.205Z,11.57
2022-10-07T06:07:29.144Z,9.75
2022-10-07T06:10:18.699Z,16.45
2022-10-07T06:13:06.690Z,12.60
2022-10-07T06:15:37.254Z,13.93
2022-10-07T06:18:05.815Z,8.77
2022-10-07T06:20:34.394Z,13.77
2022-10-07T06:23:02.204Z,11.32
2022-10-07T06:25:30.560Z,9.55
2022-10-07T06:28:00.266Z,15.00
2022-10-07T06:30:29.456Z,11.15
2022-10-07T06:32:59.821Z,7.53
2022-10-07T06:35:29.156Z,7.28
2022-10-07T06:37:58.067Z,5.93
2022-10-07T06:40:26.706Z,5.65
2022-10-07T06:42:55.622Z,8.75
2022-10-07T06:45:34.308Z,5.95
2022-10-07T06:48:05.663Z,5.47
2022-10-07T06:50:33.836Z,4.93
2022-10-07T06:53:02.593Z,7.30
2022-10-07T06:58:06.330Z,7.47
2022-10-07T07:00:37.632Z,6.93
2022-10-07T07:03:05.793Z,5.10
2022-10-07T07:05:42.911Z,7.07
2022-10-07T07:08:17.251Z,4.93
2022-10-07T07:10:46.321Z,6.90
2022-10-07T07:13:18.096Z,6.40
2022-10-07T07:15:59.202Z,5.67
2022-10-07T07:18:30.372Z,7.55
2022-10-07T07:21:04.800Z,5.72
2022-10-07T07:23:33.230Z,8.40
2022-10-07T07:26:01.431Z,5.93
2022-10-07T07:28:32.369Z,7.70
2022-10-07T07:31:08.356Z,10.18
2022-10-07T07:33:40.193Z,8.77
2022-10-07T07:36:31.245Z,6.80
2022-10-07T07:39:08.611Z,8.45
2022-10-07T07:41:56.994Z,4.65
2022-10-07T07:44:30.012Z,5.15
2022-10-07T07:47:01.845Z,7.57
2022-10-07T07:49:32.017Z,5.55
2022-10-07T07:52:02.134Z,5.95
2022-10-07T07:54:37.895Z,5.57
2022-10-07T07:57:05.945Z,4.90
2022-10-07T07:59:38.021Z,5.95
2022-10-07T08:02:07.894Z,6.63
2022-10-07T08:04:38.559Z,5.82
2022-10-07T08:07:08.003Z,6.43
2022-10-07T08:09:36.672Z,4.57
2022-10-07T08:12:06.222Z,4.20
2022-10-07T08:14:34.535Z,4.15
2022-10-07T08:17:02.545Z,7.93
2022-10-07T08:19:32.331Z,4.30
2022-10-07T08:22:01.878Z,9.30
2022-10-07T08:24:32.637Z,4.38
2022-10-07T08:27:01.054Z,5.63
2022-10-07T08:29:31.737Z,6.55
2022-10-07T08:32:00.149Z,4.15
2022-10-07T08:34:28.674Z,8.77
2022-10-07T08:36:57.429Z,6.63
2022-10-07T08:39:28.127Z,5.05
2022-10-07T08:42:28.093Z,5.50
2022-10-07T08:44:56.763Z,8.13
2022-10-07T08:47:44.310Z,6.53
2022-10-07T08:50:59.477Z,2.78
2022-10-07T08:53:35.049Z,4.20
2022-10-07T08:56:07.676Z,6.10
2022-10-07T08:59:25.888Z,4.38
2022-10-07T09:02:16.407Z,5.95
2022-10-07T09:05:27.244Z,3.95
2022-10-07T09:08:02.781Z,3.47
2022-10-07T09:10:39.964Z,3.42
2022-10-07T09:13:24.917Z,7.63
2022-10-07T09:16:29.715Z,5.13
2022-10-07T09:19:07.574Z,6.15
2022-10-07T09:21:52.015Z,4.45
2022-10-07T09:24:30.769Z,7.13
2022-10-07T09:27:03.029Z,4.95
2022-10-07T09:29:31.310Z,6.30
2022-10-07T09:31:59.332Z,5.05
2022-10-07T09:34:30.869Z,15.55
2022-10-07T09:37:22.332Z,5.90
2022-10-07T09:39:53.444Z,6.53
2022-10-07T09:42:49.972Z,8.50
2022-10-07T09:45:26.554Z,5.97
2022-10-07T09:48:07.314Z,4.40
2022-10-07T09:50:38.193Z,3.28
2022-10-07T09:53:33.304Z,6.05
2022-10-07T09:56:03.372Z,8.52
2022-10-07T09:58:32.301Z,5.00
2022-10-07T10:01:03.927Z,4.47
2022-10-07T10:03:37.874Z,4.35
2022-10-07T10:06:09.694Z,5.22
2022-10-07T10:08:42.058Z,5.57
2022-10-07T10:11:25.972Z,5.90
2022-10-07T10:13:54.337Z,3.63
2022-10-07T10:16:25.344Z,5.32
2022-10-07T10:19:24.959Z,4.57
2022-10-07T10:21:56.333Z,8.90
2022-10-07T10:24:47.769Z,4.05
2022-10-07T10:30:22.318Z,8.57
2022-10-07T10:33:08.939Z,5.35
2022-10-07T10:36:18.858Z,4.38
2022-10-07T10:39:23.295Z,3.65
2022-10-07T10:41:58.122Z,3.90
2022-10-07T10:45:15.878Z,3.50
2022-10-07T10:48:26.079Z,3.53
2022-10-07T10:52:02.917Z,6.60
2022-10-07T10:54:58.827Z,4.80
2022-10-07T10:58:01.882Z,3.85
2022-10-07T11:01:03.143Z,3.70
2022-10-07T11:04:33.518Z,3.55
2022-10-07T11:07:33.151Z,5.25
2022-10-07T11:10:28.591Z,3.80
2022-10-07T11:13:10.831Z,3.05
2022-10-07T11:15:53.855Z,2.28
2022-10-07T11:18:46.867Z,5.28
2022-10-07T11:21:31.966Z,4.50
2022-10-07T11:24:17.941Z,3.30
2022-10-07T11:26:52.371Z,4.93
2022-10-07T11:29:50.791Z,9.10
2022-10-07T11:32:56.157Z,6.40
2022-10-07T11:35:30.182Z,5.03
2022-10-07T11:38:12.645Z,2.53
2022-10-07T11:41:12.398Z,3.85
2022-10-07T11:43:58.337Z,2.95
2022-10-07T11:46:45.312Z,4.95
2022-10-07T11:49:39.775Z,3.80
2022-10-07T11:52:26.927Z,3.92
2022-10-07T11:55:08.696Z,4.30
2022-10-07T11:57:43.658Z,5.30
2022-10-07T12:00:27.036Z,3.65
2022-10-07T12:03:21.064Z,4.45
2022-10-07T12:05:53.217Z,3.90
2022-10-07T12:08:35.714Z,4.65
2022-10-07T12:13:52.168Z,4.65
2022-10-07T12:16:55.873Z,5.18
2022-10-07T12:19:25.062Z,3.22
2022-10-07T12:22:05.004Z,3.88
2022-10-07T12:24:37.900Z,6.88
2022-10-07T12:30:50.077Z,6.70
2022-10-07T13:19:19.415Z,4.03
2022-10-07T13:22:11.513Z,3.70
2022-10-07T13:24:56.876Z,2.33
2022-10-07T13:27:34.807Z,4.72
2022-10-07T13:30:07.033Z,2.45
2022-10-07T13:32:36.412Z,3.35
2022-10-07T13:35:39.325Z,4.90
2022-10-07T13:38:25.771Z,2.50
2022-10-07T13:41:17.772Z,3.38
2022-10-07T13:43:47.252Z,2.45
2022-10-07T13:46:17.008Z,3.65
2022-10-07T13:48:47.376Z,3.97
2022-10-07T13:51:34.436Z,4.95
2022-10-07T13:54:17.944Z,3.25
2022-10-07T13:56:47.636Z,3.35
2022-10-07T13:59:18.170Z,4.72
2022-10-07T14:01:58.968Z,4.55
2022-10-07T14:04:33.822Z,4.93
2022-10-07T14:07:11.112Z,10.23
2022-10-07T14:09:48.116Z,3.88
2022-10-07T14:12:23.233Z,4.20
2022-10-07T14:14:56.005Z,3.92
2022-10-07T14:17:33.607Z,5.63
2022-10-07T14:20:06.370Z,2.88
2022-10-07T14:22:42.159Z,3.58
2022-10-07T14:25:48.737Z,5.20
2022-10-07T14:28:19.991Z,4.53
2022-10-07T14:34:35.993Z,3.55
2022-10-07T14:37:17.738Z,3.80
2022-10-07T14:39:49.014Z,2.92
2022-10-07T14:45:21.373Z,2.63
2022-10-07T14:47:50.023Z,3.42
2022-10-07T14:50:19.753Z,4.15
2022-10-07T14:52:52.340Z,3.50
2022-10-07T14:55:26.796Z,4.20
2022-10-07T14:57:55.559Z,7.30
2022-10-07T15:00:29.707Z,5.97
2022-10-07T15:02:57.738Z,5.47
2022-10-07T15:05:27.314Z,4.55
2022-10-07T15:07:56.669Z,4.43
2022-10-07T15:10:27.007Z,3.08
2022-10-07T15:12:56.961Z,6.00
2022-10-07T15:15:25.221Z,8.88
2022-10-07T15:17:54.817Z,4.93
2022-10-07T15:20:25.657Z,6.65
2022-10-07T15:22:53.948Z,4.10
2022-10-07T15:25:22.941Z,4.85
2022-10-07T15:27:51.682Z,4.60
2022-10-07T15:30:19.894Z,4.07
2022-10-07T15:32:48.832Z,3.92
2022-10-07T15:35:19.181Z,7.45
2022-10-07T15:37:47.874Z,5.10
2022-10-07T15:40:16.717Z,4.22
2022-10-07T15:42:45.161Z,5.05
2022-10-07T15:45:13.337Z,2.50
2022-10-07T15:47:41.377Z,4.07
2022-10-07T15:50:09.889Z,4.82
2022-10-07T15:52:39.172Z,5.10
2022-10-07T15:55:08.813Z,3.92
2022-10-07T15:57:38.885Z,4.13
2022-10-07T16:00:10.933Z,4.80
2022-10-07T16:02:42.309Z,3.50
2022-10-07T16:05:13.059Z,4.88
2022-10-07T16:07:41.226Z,3.33
2022-10-07T16:10:13.186Z,9.05
2022-10-07T16:12:44.126Z,5.25
2022-10-07T16:15:13.505Z,4.88
2022-10-07T16:17:43.357Z,4.43
2022-10-07T16:20:15.163Z,3.55
2022-10-07T16:22:43.340Z,3.10
2022-10-07T16:25:12.685Z,3.50
2022-10-07T16:27:59.920Z,4.28
2022-10-07T16:30:43.318Z,2.47
2022-10-07T16:33:11.233Z,3.60
2022-10-07T16:35:39.583Z,3.40
2022-10-07T16:38:08.129Z,4.90
2022-10-07T16:40:35.941Z,6.30
2022-10-07T16:43:04.468Z,6.03
2022-10-07T16:45:34.155Z,7.72
2022-10-07T16:48:03.134Z,7.38
2022-10-07T16:50:31.814Z,6.68
2022-10-07T16:53:01.159Z,6.85
2022-10-07T16:55:31.224Z,7.72
2022-10-07T16:58:01.460Z,5.80
2022-10-07T17:00:32.330Z,3.15
2022-10-07T17:03:02.567Z,3.78
2022-10-07T17:05:30.789Z,5.35
2022-10-07T17:07:59.517Z,3.40
2022-10-07T17:10:27.431Z,3.80
2022-10-07T17:12:55.411Z,3.95
2022-10-07T17:15:23.696Z,4.47
2022-10-07T17:17:54.489Z,5.75
2022-10-07T17:20:24.213Z,4.78
2022-10-07T17:22:52.375Z,5.88
2022-10-07T17:25:20.934Z,6.75
2022-10-07T17:27:49.311Z,6.30
2022-10-07T17:30:19.069Z,5.75
2022-10-07T17:32:50.780Z,6.65
2022-10-07T17:35:18.894Z,5.07
2022-10-07T17:37:46.885Z,4.75
2022-10-07T17:40:16.047Z,5.15
2022-10-07T17:42:44.743Z,4.85
2022-10-07T17:45:12.595Z,3.65
2022-10-07T17:47:40.364Z,5.03
2022-10-07T17:50:08.979Z,7.28
2022-10-07T17:52:38.591Z,3.95
2022-10-07T17:55:07.896Z,3.92
2022-10-07T17:57:41.430Z,3.38
2022-10-07T18:00:13.581Z,6.18
2022-10-07T18:02:41.849Z,5.40
2022-10-07T18:05:11.130Z,4.90
2022-10-07T18:07:39.678Z,5.57
2022-10-07T18:10:08.370Z,5.60
2022-10-07T18:12:55.941Z,5.32
2022-10-07T18:15:24.050Z,3.47
2022-10-07T18:17:57.388Z,4.43
2022-10-07T18:20:26.765Z,6.32
2022-10-07T18:22:57.503Z,3.65
2022-10-07T18:25:26.047Z,3.10
2022-10-07T18:27:54.781Z,4.50
2022-10-07T18:30:23.159Z,6.07
2022-10-07T18:32:51.421Z,4.53
2022-10-07T18:35:20.420Z,4.60
2022-10-07T18:37:51.917Z,5.07
2022-10-07T18:40:21.016Z,6.32
2022-10-07T18:42:50.659Z,3.05
2022-10-07T18:45:18.924Z,4.90
2022-10-07T18:47:48.686Z,4.45
2022-10-07T18:50:18.974Z,4.13
2022-10-07T18:52:47.487Z,3.70
2022-10-07T18:55:16.865Z,2.78
2022-10-07T18:57:48.001Z,10.20
2022-10-07T19:00:16.509Z,3.33
2022-10-07T19:02:46.675Z,4.65
2022-10-07T19:05:16.131Z,6.13
2022-10-07T19:07:46.899Z,5.78
2022-10-07T19:10:16.597Z,5.00
2022-10-07T19:13:24.101Z,5.53
2022-10-07T19:15:52.652Z,7.13
2022-10-07T19:18:21.433Z,4.47
2022-10-07T19:21:01.283Z,4.15
2022-10-07T19:23:30.548Z,5.88
2022-10-07T19:26:02.371Z,3.95
2022-10-07T19:28:39.243Z,4.25
2022-10-07T19:31:15.247Z,5.43
2022-10-07T19:33:46.944Z,6.45
2022-10-07T19:36:15.839Z,6.50
2022-10-07T19:38:46.255Z,16.85
2022-10-07T19:41:16.468Z,11.13
2022-10-07T19:43:45.416Z,7.68
2022-10-07T19:46:14.344Z,6.70
2022-10-07T19:48:43.309Z,19.38
2022-10-07T19:51:19.290Z,17.80
2022-10-07T19:53:47.928Z,10.75
2022-10-07T19:56:21.339Z,11.80
2022-10-07T19:58:56.315Z,13.68
2022-10-07T20:01:28.253Z,9.48
2022-10-07T20:04:02.731Z,9.77
2022-10-07T20:06:32.190Z,5.10
2022-10-07T20:09:00.955Z,7.93
2022-10-07T20:11:30.308Z,6.95
2022-10-07T20:13:58.484Z,7.85
2022-10-07T20:16:28.265Z,6.63
2022-10-07T20:19:06.078Z,7.97
2022-10-07T20:21:37.506Z,5.00
2022-10-07T20:26:41.404Z,4.22
2022-10-07T20:29:12.007Z,8.68
2022-10-07T20:31:43.478Z,17.13
2022-10-07T20:34:19.171Z,7.90
2022-10-07T20:36:50.424Z,7.38
2022-10-07T20:39:39.543Z,8.27
2022-10-07T20:42:22.625Z,5.95
2022-10-07T20:44:52.604Z,10.75
2022-10-07T20:47:23.941Z,8.32
2022-10-07T20:49:55.482Z,9.60
2022-10-07T20:52:27.181Z,7.43
2022-10-07T20:54:56.343Z,11.05
2022-10-07T20:57:28.504Z,8.48
2022-10-07T20:59:56.490Z,9.68
2022-10-07T21:02:24.637Z,5.50
2022-10-07T21:04:53.565Z,5.25
2022-10-07T21:07:21.897Z,6.47
2022-10-07T21:09:49.717Z,5.10
2022-10-07T21:12:19.402Z,8.07
2022-10-07T21:14:48.911Z,5.68
2022-10-07T21:17:17.285Z,7.30
2022-10-07T21:19:45.804Z,7.38
2022-10-07T21:22:14.014Z,5.68
2022-10-07T21:24:42.024Z,8.80
2022-10-07T21:27:11.715Z,7.03
2022-10-07T21:29:42.119Z,5.05
2022-10-07T21:32:11.802Z,8.40
2022-10-07T21:34:40.579Z,9.68
2022-10-07T21:37:08.698Z,6.88
2022-10-07T21:39:38.368Z,8.35
2022-10-07T21:42:07.495Z,6.47
2022-10-07T21:44:36.214Z,6.57
2022-10-07T21:47:05.321Z,6.22
2022-10-07T21:49:33.831Z,8.20
2022-10-07T21:52:02.356Z,5.55
2022-10-07T21:54:30.415Z,6.88
2022-10-07T21:56:58.832Z,7.30
2022-10-07T21:59:27.090Z,10.43
2022-10-07T22:01:55.702Z,9.60
2022-10-07T22:04:24.705Z,8.13
2022-10-07T22:07:12.379Z,9.30
2022-10-07T22:09:41.615Z,7.30
2022-10-07T22:12:10.007Z,8.50
2022-10-07T22:14:38.625Z,8.60
2022-10-07T22:17:06.762Z,7.45
2022-10-07T22:19:35.091Z,8.85
2022-10-07T22:22:03.767Z,7.95
2022-10-07T22:24:31.911Z,6.50
2022-10-07T22:27:00.964Z,7.78
2022-10-07T22:29:29.950Z,7.88
2022-10-07T22:31:59.126Z,8.77
2022-10-07T22:34:45.756Z,5.60
2022-10-07T22:37:14.144Z,5.85
2022-10-07T22:39:43.563Z,9.32
2022-10-07T22:42:11.924Z,7.82
2022-10-07T22:44:39.748Z,7.90
2022-10-07T22:47:07.461Z,5.53
2022-10-07T22:49:36.378Z,8.00
2022-10-07T22:52:04.495Z,5.38
2022-10-07T22:54:32.677Z,8.15
2022-10-07T22:57:00.561Z,6.45
2022-10-07T22:59:28.411Z,7.03
2022-10-07T23:01:57.086Z,6.07
2022-10-07T23:04:25.572Z,6.78
2022-10-07T23:06:54.084Z,6.43
2022-10-07T23:09:22.104Z,7.25
2022-10-07T23:11:50.658Z,5.18
2022-10-07T23:14:18.499Z,5.15
2022-10-07T23:16:46.294Z,5.85
2022-10-07T23:19:14.760Z,7.82
2022-10-07T23:21:44.957Z,6.97
2022-10-07T23:24:14.607Z,6.88
2022-10-07T23:26:45.846Z,8.38
2022-10-07T23:29:14.250Z,6.60
2022-10-07T23:31:42.415Z,10.30
2022-10-07T23:34:11.770Z,5.63
2022-10-07T23:36:40.863Z,10.35
2022-10-07T23:39:08.977Z,5.72
2022-10-07T23:41:37.311Z,6.53
2022-10-07T23:44:05.839Z,6.65
2022-10-07T23:46:35.872Z,8.88
2022-10-07T23:49:04.266Z,9.35
2022-10-07T23:51:33.343Z,6.35
2022-10-07T23:54:04.611Z,6.45
2022-10-07T23:56:33.236Z,7.38
2022-10-07T23:59:02.096Z,5.22
